Burneyville, Oklahoma
Current Conditions -  °F | °C
As of 12:55 AM on Thursday 23 Oct 2014 (Local Time) from KGLE Reporting Station
Scattered Clouds Scattered Clouds  
Wind Chill: 65°   Ceiling: Unl
Heat Index: 65°   Visibility: 10mi
Dew Point: 55°   Wind: 7mph
Humidity: 70%   Direction: 120°ESE
Pressure: 30.13"   Gusts: NA
Location:  33.91°N, 97.29°W
Report Text: KGLE 230555Z AUTO 12006KT 10SM SCT085 SCT120 19/13 A3013 RMK AO2 T01850130 10221 20185 402580136
Loading
Personal Weather Stations






























Interactive Weather Map
Tropical Storm Tracking
New forecast layout! Learn more

10-Day Weather Forecast

Advertisements
Track Severe Weather on mobile